sensor_id;sensor_type;location;lat;lon;timestamp;temperature;humidity
46752;DHT22;32497;48.936;9.270;2023-07-09T00:04:31;21.80;59.00
46752;DHT22;32497;48.936;9.270;2023-07-09T00:09:33;21.80;59.10
46752;DHT22;32497;48.936;9.270;2023-07-09T00:14:34;21.80;59.60
46752;DHT22;32497;48.936;9.270;2023-07-09T00:19:35;21.80;59.00
46752;DHT22;32497;48.936;9.270;2023-07-09T00:24:38;21.70;58.90
46752;DHT22;32497;48.936;9.270;2023-07-09T00:29:39;21.70;59.10
46752;DHT22;32497;48.936;9.270;2023-07-09T00:34:40;21.70;59.10
46752;DHT22;32497;48.936;9.270;2023-07-09T00:39:42;21.70;58.80
46752;DHT22;32497;48.936;9.270;2023-07-09T00:44:45;21.70;59.70
46752;DHT22;32497;48.936;9.270;2023-07-09T00:49:47;21.70;59.00
46752;DHT22;32497;48.936;9.270;2023-07-09T00:54:50;21.70;58.50
46752;DHT22;32497;48.936;9.270;2023-07-09T00:59:56;21.70;58.90
46752;DHT22;32497;48.936;9.270;2023-07-09T01:04:59;21.40;60.00
46752;DHT22;32497;48.936;9.270;2023-07-09T01:10:04;21.50;59.70
46752;DHT22;32497;48.936;9.270;2023-07-09T01:15:07;21.40;60.00
46752;DHT22;32497;48.936;9.270;2023-07-09T01:20:09;21.20;60.10
46752;DHT22;32497;48.936;9.270;2023-07-09T01:25:16;21.20;61.10
46752;DHT22;32497;48.936;9.270;2023-07-09T01:30:20;21.20;60.60
46752;DHT22;32497;48.936;9.270;2023-07-09T01:35:22;21.00;60.90
46752;DHT22;32497;48.936;9.270;2023-07-09T01:40:26;20.90;61.80
46752;DHT22;32497;48.936;9.270;2023-07-09T01:45:28;20.90;61.70
46752;DHT22;32497;48.936;9.270;2023-07-09T01:50:30;20.80;61.30
46752;DHT22;32497;48.936;9.270;2023-07-09T01:55:32;20.70;62.30
46752;DHT22;32497;48.936;9.270;2023-07-09T02:00:34;20.60;62.30
46752;DHT22;32497;48.936;9.270;2023-07-09T02:05:37;20.50;62.90
46752;DHT22;32497;48.936;9.270;2023-07-09T02:10:40;20.60;63.60
46752;DHT22;32497;48.936;9.270;2023-07-09T02:15:43;20.40;63.50
46752;DHT22;32497;48.936;9.270;2023-07-09T02:20:45;20.50;63.90
46752;DHT22;32497;48.936;9.270;2023-07-09T02:25:48;20.60;63.90
46752;DHT22;32497;48.936;9.270;2023-07-09T02:30:49;20.30;64.30
46752;DHT22;32497;48.936;9.270;2023-07-09T02:35:50;20.30;63.60
46752;DHT22;32497;48.936;9.270;2023-07-09T02:40:53;20.10;64.40
46752;DHT22;32497;48.936;9.270;2023-07-09T02:45:54;20.10;63.70
46752;DHT22;32497;48.936;9.270;2023-07-09T02:50:55;20.10;64.20
46752;DHT22;32497;48.936;9.270;2023-07-09T02:55:57;20.10;64.20
46752;DHT22;32497;48.936;9.270;2023-07-09T03:00:58;19.80;64.80
46752;DHT22;32497;48.936;9.270;2023-07-09T03:06:00;19.90;65.40
46752;DHT22;32497;48.936;9.270;2023-07-09T03:11:09;19.90;65.90
46752;DHT22;32497;48.936;9.270;2023-07-09T03:16:10;19.90;66.20
46752;DHT22;32497;48.936;9.270;2023-07-09T03:21:11;19.70;66.60
46752;DHT22;32497;48.936;9.270;2023-07-09T03:26:14;19.60;66.90
46752;DHT22;32497;48.936;9.270;2023-07-09T03:31:15;19.40;67.90
46752;DHT22;32497;48.936;9.270;2023-07-09T03:36:17;19.20;67.80
46752;DHT22;32497;48.936;9.270;2023-07-09T03:41:20;19.00;67.70
46752;DHT22;32497;48.936;9.270;2023-07-09T03:46:21;19.10;67.70
46752;DHT22;32497;48.936;9.270;2023-07-09T03:51:22;19.10;68.00
46752;DHT22;32497;48.936;9.270;2023-07-09T03:56:24;19.20;67.50
46752;DHT22;32497;48.936;9.270;2023-07-09T04:01:25;19.30;67.50
46752;DHT22;32497;48.936;9.270;2023-07-09T04:06:26;19.40;67.40
46752;DHT22;32497;48.936;9.270;2023-07-09T04:11:29;19.40;67.60
46752;DHT22;32497;48.936;9.270;2023-07-09T04:16:30;19.50;67.50
46752;DHT22;32497;48.936;9.270;2023-07-09T04:21:31;19.50;67.60
46752;DHT22;32497;48.936;9.270;2023-07-09T04:26:33;19.60;67.10
46752;DHT22;32497;48.936;9.270;2023-07-09T04:31:34;19.60;67.50
46752;DHT22;32497;48.936;9.270;2023-07-09T04:36:36;19.60;68.00
46752;DHT22;32497;48.936;9.270;2023-07-09T04:41:38;19.70;67.90
46752;DHT22;32497;48.936;9.270;2023-07-09T04:46:39;19.90;67.70
46752;DHT22;32497;48.936;9.270;2023-07-09T04:51:40;20.00;67.80
46752;DHT22;32497;48.936;9.270;2023-07-09T04:56:43;20.10;67.70
46752;DHT22;32497;48.936;9.270;2023-07-09T05:01:44;20.40;67.00
46752;DHT22;32497;48.936;9.270;2023-07-09T05:06:45;20.70;67.40
46752;DHT22;32497;48.936;9.270;2023-07-09T05:11:47;20.90;66.10
46752;DHT22;32497;48.936;9.270;2023-07-09T05:16:48;20.80;65.90
46752;DHT22;32497;48.936;9.270;2023-07-09T05:21:49;21.10;66.60
46752;DHT22;32497;48.936;9.270;2023-07-09T05:26:52;21.30;65.70
46752;DHT22;32497;48.936;9.270;2023-07-09T05:31:53;21.40;64.80
46752;DHT22;32497;48.936;9.270;2023-07-09T05:36:54;23.20;60.50
46752;DHT22;32497;48.936;9.270;2023-07-09T05:41:57;24.40;55.40
46752;DHT22;32497;48.936;9.270;2023-07-09T05:46:58;24.60;55.10
46752;DHT22;32497;48.936;9.270;2023-07-09T05:51:59;23.50;58.00
46752;DHT22;32497;48.936;9.270;2023-07-09T05:57:01;22.80;59.60
46752;DHT22;32497;48.936;9.270;2023-07-09T06:02:03;23.20;60.50
46752;DHT22;32497;48.936;9.270;2023-07-09T06:07:04;23.20;60.30
46752;DHT22;32497;48.936;9.270;2023-07-09T06:12:07;23.10;61.60
46752;DHT22;32497;48.936;9.270;2023-07-09T06:17:09;23.60;60.50
46752;DHT22;32497;48.936;9.270;2023-07-09T06:22:10;24.30;58.30
46752;DHT22;32497;48.936;9.270;2023-07-09T06:27:12;25.40;54.20
46752;DHT22;32497;48.936;9.270;2023-07-09T06:32:13;27.80;49.20
46752;DHT22;32497;48.936;9.270;2023-07-09T06:37:14;29.20;45.00
46752;DHT22;32497;48.936;9.270;2023-07-09T06:42:17;28.70;45.70
46752;DHT22;32497;48.936;9.270;2023-07-09T06:47:39;29.00;44.30
46752;DHT22;32497;48.936;9.270;2023-07-09T06:52:40;29.90;43.60
46752;DHT22;32497;48.936;9.270;2023-07-09T06:57:43;29.20;43.60
46752;DHT22;32497;48.936;9.270;2023-07-09T07:02:44;29.60;43.70
46752;DHT22;32497;48.936;9.270;2023-07-09T07:07:45;30.80;41.50
46752;DHT22;32497;48.936;9.270;2023-07-09T07:12:48;31.40;39.90
46752;DHT22;32497;48.936;9.270;2023-07-09T07:17:49;32.30;39.70
46752;DHT22;32497;48.936;9.270;2023-07-09T07:22:50;32.80;39.00
46752;DHT22;32497;48.936;9.270;2023-07-09T07:27:53;32.70;39.10
46752;DHT22;32497;48.936;9.270;2023-07-09T07:32:54;32.60;36.90
46752;DHT22;32497;48.936;9.270;2023-07-09T07:37:55;33.00;36.10
46752;DHT22;32497;48.936;9.270;2023-07-09T07:42:57;33.10;35.90
46752;DHT22;32497;48.936;9.270;2023-07-09T07:47:58;33.20;34.60
46752;DHT22;32497;48.936;9.270;2023-07-09T07:53:00;32.80;37.20
46752;DHT22;32497;48.936;9.270;2023-07-09T07:58:02;32.20;36.90
46752;DHT22;32497;48.936;9.270;2023-07-09T08:03:03;33.00;36.10
46752;DHT22;32497;48.936;9.270;2023-07-09T08:08:04;33.20;35.70
46752;DHT22;32497;48.936;9.270;2023-07-09T08:13:07;34.40;34.30
46752;DHT22;32497;48.936;9.270;2023-07-09T08:18:08;34.70;33.70
46752;DHT22;32497;48.936;9.270;2023-07-09T08:23:09;35.40;31.30
46752;DHT22;32497;48.936;9.270;2023-07-09T08:28:12;35.10;32.60
46752;DHT22;32497;48.936;9.270;2023-07-09T08:33:13;35.20;32.80
46752;DHT22;32497;48.936;9.270;2023-07-09T08:38:14;34.20;35.40
46752;DHT22;32497;48.936;9.270;2023-07-09T08:43:24;35.50;32.20
46752;DHT22;32497;48.936;9.270;2023-07-09T08:48:33;33.80;33.00
46752;DHT22;32497;48.936;9.270;2023-07-09T08:53:38;32.40;35.50
46752;DHT22;32497;48.936;9.270;2023-07-09T08:58:43;33.60;36.00
46752;DHT22;32497;48.936;9.270;2023-07-09T09:03:47;34.30;34.40
46752;DHT22;32497;48.936;9.270;2023-07-09T09:08:57;34.90;32.40
46752;DHT22;32497;48.936;9.270;2023-07-09T09:14:02;34.80;31.60
46752;DHT22;32497;48.936;9.270;2023-07-09T09:19:15;34.30;33.10
46752;DHT22;32497;48.936;9.270;2023-07-09T09:24:23;33.30;35.40
46752;DHT22;32497;48.936;9.270;2023-07-09T09:29:28;34.20;33.60
46752;DHT22;32497;48.936;9.270;2023-07-09T09:34:30;35.10;31.60
46752;DHT22;32497;48.936;9.270;2023-07-09T09:39:31;35.00;30.50
46752;DHT22;32497;48.936;9.270;2023-07-09T09:44:33;34.10;34.10
46752;DHT22;32497;48.936;9.270;2023-07-09T09:49:39;34.50;32.80
46752;DHT22;32497;48.936;9.270;2023-07-09T09:54:41;35.20;30.70
46752;DHT22;32497;48.936;9.270;2023-07-09T09:59:46;35.50;28.50
46752;DHT22;32497;48.936;9.270;2023-07-09T10:04:48;34.70;31.40
46752;DHT22;32497;48.936;9.270;2023-07-09T10:09:51;35.10;30.20
46752;DHT22;32497;48.936;9.270;2023-07-09T10:14:59;35.20;28.90
46752;DHT22;32497;48.936;9.270;2023-07-09T10:20:07;36.30;28.90
46752;DHT22;32497;48.936;9.270;2023-07-09T10:25:16;35.70;28.10
46752;DHT22;32497;48.936;9.270;2023-07-09T10:30:39;35.70;28.50
46752;DHT22;32497;48.936;9.270;2023-07-09T10:35:49;35.50;29.80
46752;DHT22;32497;48.936;9.270;2023-07-09T10:40:56;34.90;28.50
46752;DHT22;32497;48.936;9.270;2023-07-09T10:46:02;35.70;28.10
46752;DHT22;32497;48.936;9.270;2023-07-09T10:51:17;36.70;26.80
46752;DHT22;32497;48.936;9.270;2023-07-09T10:56:22;37.40;25.80
46752;DHT22;32497;48.936;9.270;2023-07-09T11:01:29;36.00;23.30
46752;DHT22;32497;48.936;9.270;2023-07-09T11:06:35;36.70;26.20
46752;DHT22;32497;48.936;9.270;2023-07-09T11:11:41;37.20;23.40
46752;DHT22;32497;48.936;9.270;2023-07-09T11:16:45;36.20;25.40
46752;DHT22;32497;48.936;9.270;2023-07-09T11:21:58;36.30;26.70
46752;DHT22;32497;48.936;9.270;2023-07-09T11:26:59;37.30;23.50
46752;DHT22;32497;48.936;9.270;2023-07-09T11:32:09;37.10;22.60
46752;DHT22;32497;48.936;9.270;2023-07-09T11:37:12;36.30;24.30
46752;DHT22;32497;48.936;9.270;2023-07-09T11:42:29;36.70;25.30
46752;DHT22;32497;48.936;9.270;2023-07-09T11:47:36;37.10;25.90
46752;DHT22;32497;48.936;9.270;2023-07-09T11:52:43;38.00;27.30
46752;DHT22;32497;48.936;9.270;2023-07-09T11:57:47;38.30;22.60
46752;DHT22;32497;48.936;9.270;2023-07-09T12:02:50;38.30;23.50
46752;DHT22;32497;48.936;9.270;2023-07-09T12:07:51;38.10;21.90
46752;DHT22;32497;48.936;9.270;2023-07-09T12:12:56;38.00;20.50
46752;DHT22;32497;48.936;9.270;2023-07-09T12:18:02;37.80;23.00
46752;DHT22;32497;48.936;9.270;2023-07-09T12:23:11;38.60;20.80
46752;DHT22;32497;48.936;9.270;2023-07-09T12:28:14;38.00;23.60
46752;DHT22;32497;48.936;9.270;2023-07-09T12:33:18;39.20;21.50
46752;DHT22;32497;48.936;9.270;2023-07-09T12:38:20;39.10;20.20
46752;DHT22;32497;48.936;9.270;2023-07-09T12:43:28;39.70;20.30
46752;DHT22;32497;48.936;9.270;2023-07-09T12:48:31;39.70;21.10
46752;DHT22;32497;48.936;9.270;2023-07-09T12:53:32;40.20;21.10
46752;DHT22;32497;48.936;9.270;2023-07-09T12:58:37;40.40;22.90
46752;DHT22;32497;48.936;9.270;2023-07-09T13:03:40;41.30;17.90
46752;DHT22;32497;48.936;9.270;2023-07-09T13:08:43;40.00;18.40
46752;DHT22;32497;48.936;9.270;2023-07-09T13:13:54;39.70;20.30
46752;DHT22;32497;48.936;9.270;2023-07-09T13:18:57;41.20;17.20
46752;DHT22;32497;48.936;9.270;2023-07-09T13:23:59;41.80;17.80
46752;DHT22;32497;48.936;9.270;2023-07-09T13:29:00;42.60;18.00
46752;DHT22;32497;48.936;9.270;2023-07-09T13:34:13;42.90;17.60
46752;DHT22;32497;48.936;9.270;2023-07-09T13:39:17;42.30;17.10
46752;DHT22;32497;48.936;9.270;2023-07-09T13:44:21;41.30;19.30
46752;DHT22;32497;48.936;9.270;2023-07-09T13:49:25;41.90;17.60
46752;DHT22;32497;48.936;9.270;2023-07-09T13:54:29;42.50;19.90
46752;DHT22;32497;48.936;9.270;2023-07-09T13:59:31;43.10;17.00
46752;DHT22;32497;48.936;9.270;2023-07-09T14:04:33;42.40;17.30
46752;DHT22;32497;48.936;9.270;2023-07-09T14:09:34;42.10;19.10
46752;DHT22;32497;48.936;9.270;2023-07-09T14:14:35;42.90;20.10
46752;DHT22;32497;48.936;9.270;2023-07-09T14:19:38;42.80;18.20
46752;DHT22;32497;48.936;9.270;2023-07-09T14:24:39;42.70;19.50
46752;DHT22;32497;48.936;9.270;2023-07-09T14:29:40;41.60;16.50
46752;DHT22;32497;48.936;9.270;2023-07-09T14:34:42;39.30;19.80
46752;DHT22;32497;48.936;9.270;2023-07-09T14:39:44;40.00;21.40
46752;DHT22;32497;48.936;9.270;2023-07-09T14:44:45;41.70;18.90
46752;DHT22;32497;48.936;9.270;2023-07-09T14:49:48;41.70;18.60
46752;DHT22;32497;48.936;9.270;2023-07-09T14:54:52;41.50;20.40
46752;DHT22;32497;48.936;9.270;2023-07-09T14:59:53;41.60;19.50
46752;DHT22;32497;48.936;9.270;2023-07-09T15:04:55;41.40;18.40
46752;DHT22;32497;48.936;9.270;2023-07-09T15:09:57;39.80;19.10
46752;DHT22;32497;48.936;9.270;2023-07-09T15:15:01;39.60;16.70
46752;DHT22;32497;48.936;9.270;2023-07-09T15:20:04;39.40;17.10
46752;DHT22;32497;48.936;9.270;2023-07-09T15:25:14;40.10;18.10
46752;DHT22;32497;48.936;9.270;2023-07-09T15:30:19;41.00;19.10
46752;DHT22;32497;48.936;9.270;2023-07-09T15:35:22;40.30;21.50
46752;DHT22;32497;48.936;9.270;2023-07-09T15:40:26;40.20;17.50
46752;DHT22;32497;48.936;9.270;2023-07-09T15:45:27;40.30;21.10
46752;DHT22;32497;48.936;9.270;2023-07-09T15:50:30;41.10;19.40
46752;DHT22;32497;48.936;9.270;2023-07-09T15:55:31;41.10;17.10
46752;DHT22;32497;48.936;9.270;2023-07-09T16:00:34;40.90;18.90
46752;DHT22;32497;48.936;9.270;2023-07-09T16:05:38;41.30;18.50
46752;DHT22;32497;48.936;9.270;2023-07-09T16:10:39;40.70;18.90
46752;DHT22;32497;48.936;9.270;2023-07-09T16:15:40;39.10;20.20
46752;DHT22;32497;48.936;9.270;2023-07-09T16:20:44;38.30;22.70
46752;DHT22;32497;48.936;9.270;2023-07-09T16:25:46;38.20;21.40
46752;DHT22;32497;48.936;9.270;2023-07-09T16:30:48;38.00;25.50
46752;DHT22;32497;48.936;9.270;2023-07-09T16:35:51;37.40;22.60
46752;DHT22;32497;48.936;9.270;2023-07-09T16:40:54;36.70;24.00
46752;DHT22;32497;48.936;9.270;2023-07-09T16:45:55;36.50;23.80
46752;DHT22;32497;48.936;9.270;2023-07-09T16:50:57;37.00;23.70
46752;DHT22;32497;48.936;9.270;2023-07-09T16:55:58;37.10;23.90
46752;DHT22;32497;48.936;9.270;2023-07-09T17:01:00;37.40;23.70
46752;DHT22;32497;48.936;9.270;2023-07-09T17:06:03;37.40;25.20
46752;DHT22;32497;48.936;9.270;2023-07-09T17:11:04;37.00;24.20
46752;DHT22;32497;48.936;9.270;2023-07-09T17:16:10;36.70;23.90
46752;DHT22;32497;48.936;9.270;2023-07-09T17:21:13;36.50;24.00
46752;DHT22;32497;48.936;9.270;2023-07-09T17:26:14;35.80;26.40
46752;DHT22;32497;48.936;9.270;2023-07-09T17:31:15;35.20;27.20
46752;DHT22;32497;48.936;9.270;2023-07-09T17:36:17;34.80;28.20
46752;DHT22;32497;48.936;9.270;2023-07-09T17:41:18;34.50;29.50
46752;DHT22;32497;48.936;9.270;2023-07-09T17:46:19;34.00;29.30
46752;DHT22;32497;48.936;9.270;2023-07-09T17:51:22;33.70;28.60
46752;DHT22;32497;48.936;9.270;2023-07-09T17:56:23;33.50;29.20
46752;DHT22;32497;48.936;9.270;2023-07-09T18:01:24;33.40;29.40
46752;DHT22;32497;48.936;9.270;2023-07-09T18:06:27;33.20;29.40
46752;DHT22;32497;48.936;9.270;2023-07-09T18:11:29;33.10;29.20
46752;DHT22;32497;48.936;9.270;2023-07-09T18:16:30;33.10;30.50
46752;DHT22;32497;48.936;9.270;2023-07-09T18:21:32;32.90;29.60
46752;DHT22;32497;48.936;9.270;2023-07-09T18:26:33;32.80;30.20
46752;DHT22;32497;48.936;9.270;2023-07-09T18:31:35;32.60;30.40
46752;DHT22;32497;48.936;9.270;2023-07-09T18:36:37;32.50;30.20
46752;DHT22;32497;48.936;9.270;2023-07-09T18:41:38;32.10;30.80
46752;DHT22;32497;48.936;9.270;2023-07-09T18:46:39;31.90;31.10
46752;DHT22;32497;48.936;9.270;2023-07-09T18:51:43;31.70;32.70
46752;DHT22;32497;48.936;9.270;2023-07-09T18:56:45;30.80;33.60
46752;DHT22;32497;48.936;9.270;2023-07-09T19:01:48;30.90;33.40
46752;DHT22;32497;48.936;9.270;2023-07-09T19:06:51;30.80;34.00
46752;DHT22;32497;48.936;9.270;2023-07-09T19:11:52;30.60;35.00
46752;DHT22;32497;48.936;9.270;2023-07-09T19:16:55;30.40;35.10
46752;DHT22;32497;48.936;9.270;2023-07-09T19:21:58;30.20;35.20
46752;DHT22;32497;48.936;9.270;2023-07-09T19:26:59;30.00;35.30
46752;DHT22;32497;48.936;9.270;2023-07-09T19:32:03;29.90;35.50
46752;DHT22;32497;48.936;9.270;2023-07-09T19:37:15;29.70;34.90
46752;DHT22;32497;48.936;9.270;2023-07-09T19:42:18;29.50;36.70
46752;DHT22;32497;48.936;9.270;2023-07-09T19:47:23;29.20;44.40
46752;DHT22;32497;48.936;9.270;2023-07-09T19:52:26;28.90;39.40
46752;DHT22;32497;48.936;9.270;2023-07-09T19:57:27;28.50;41.30
46752;DHT22;32497;48.936;9.270;2023-07-09T20:02:28;28.20;41.80
46752;DHT22;32497;48.936;9.270;2023-07-09T20:07:31;28.00;41.90
46752;DHT22;32497;48.936;9.270;2023-07-09T20:12:32;27.90;41.90
46752;DHT22;32497;48.936;9.270;2023-07-09T20:17:33;27.70;43.30
46752;DHT22;32497;48.936;9.270;2023-07-09T20:22:36;27.60;43.80
46752;DHT22;32497;48.936;9.270;2023-07-09T20:27:37;27.60;42.30
46752;DHT22;32497;48.936;9.270;2023-07-09T20:32:38;27.60;42.40
46752;DHT22;32497;48.936;9.270;2023-07-09T20:37:41;27.60;40.60
46752;DHT22;32497;48.936;9.270;2023-07-09T20:42:43;27.50;41.40
46752;DHT22;32497;48.936;9.270;2023-07-09T20:47:45;27.30;43.60
46752;DHT22;32497;48.936;9.270;2023-07-09T20:52:47;27.20;43.10
46752;DHT22;32497;48.936;9.270;2023-07-09T20:57:49;27.00;43.40
46752;DHT22;32497;48.936;9.270;2023-07-09T21:02:50;26.90;44.50
46752;DHT22;32497;48.936;9.270;2023-07-09T21:07:53;26.70;44.00
46752;DHT22;32497;48.936;9.270;2023-07-09T21:12:54;26.70;44.10
46752;DHT22;32497;48.936;9.270;2023-07-09T21:17:55;26.70;44.00
46752;DHT22;32497;48.936;9.270;2023-07-09T21:22:58;26.60;44.30
46752;DHT22;32497;48.936;9.270;2023-07-09T21:27:59;26.50;44.60
46752;DHT22;32497;48.936;9.270;2023-07-09T21:33:00;26.30;45.10
46752;DHT22;32497;48.936;9.270;2023-07-09T21:38:04;26.30;43.90
46752;DHT22;32497;48.936;9.270;2023-07-09T21:43:05;26.20;44.90
46752;DHT22;32497;48.936;9.270;2023-07-09T21:48:11;26.20;46.40
46752;DHT22;32497;48.936;9.270;2023-07-09T21:53:17;26.00;47.30
46752;DHT22;32497;48.936;9.270;2023-07-09T21:58:19;25.70;48.20
46752;DHT22;32497;48.936;9.270;2023-07-09T22:03:20;25.50;48.30
46752;DHT22;32497;48.936;9.270;2023-07-09T22:08:22;25.30;47.90
46752;DHT22;32497;48.936;9.270;2023-07-09T22:13:23;25.20;47.80
46752;DHT22;32497;48.936;9.270;2023-07-09T22:18:24;25.10;48.50
46752;DHT22;32497;48.936;9.270;2023-07-09T22:23:27;24.90;49.00
46752;DHT22;32497;48.936;9.270;2023-07-09T22:28:28;24.90;50.50
46752;DHT22;32497;48.936;9.270;2023-07-09T22:33:29;24.80;49.50
46752;DHT22;32497;48.936;9.270;2023-07-09T22:38:31;24.80;48.90
46752;DHT22;32497;48.936;9.270;2023-07-09T22:43:32;24.80;48.70
46752;DHT22;32497;48.936;9.270;2023-07-09T22:48:34;24.80;49.60
46752;DHT22;32497;48.936;9.270;2023-07-09T22:53:36;24.60;49.90
46752;DHT22;32497;48.936;9.270;2023-07-09T22:58:37;24.60;50.20
46752;DHT22;32497;48.936;9.270;2023-07-09T23:03:41;24.50;50.40
46752;DHT22;32497;48.936;9.270;2023-07-09T23:08:44;24.30;50.70
46752;DHT22;32497;48.936;9.270;2023-07-09T23:13:46;24.20;49.90
46752;DHT22;32497;48.936;9.270;2023-07-09T23:18:48;24.20;52.90
46752;DHT22;32497;48.936;9.270;2023-07-09T23:23:53;24.00;52.10
46752;DHT22;32497;48.936;9.270;2023-07-09T23:28:55;23.90;53.90
46752;DHT22;32497;48.936;9.270;2023-07-09T23:33:57;23.80;53.50
46752;DHT22;32497;48.936;9.270;2023-07-09T23:39:00;23.80;51.00
46752;DHT22;32497;48.936;9.270;2023-07-09T23:44:02;23.80;51.90
46752;DHT22;32497;48.936;9.270;2023-07-09T23:49:05;23.90;50.30
46752;DHT22;32497;48.936;9.270;2023-07-09T23:54:09;23.90;51.90
46752;DHT22;32497;48.936;9.270;2023-07-09T23:59:12;23.80;52.70
